createdAt,value
2022-10-01T00:02:21.375Z,73.78
2022-10-01T00:04:48.899Z,74.11
2022-10-01T00:07:17.255Z,74.10
2022-10-01T00:09:46.953Z,73.84
2022-10-01T00:12:17.092Z,74.21
2022-10-01T00:14:44.859Z,74.19
2022-10-01T00:17:12.733Z,74.17
2022-10-01T00:19:42.349Z,73.99
2022-10-01T00:22:11.324Z,74.02
2022-10-01T00:24:38.792Z,74.22
2022-10-01T00:27:07.372Z,74.11
2022-10-01T00:29:36.791Z,74.07
2022-10-01T00:32:05.414Z,73.95
2022-10-01T00:34:34.372Z,74.33
2022-10-01T00:37:04.913Z,74.29
2022-10-01T00:39:32.500Z,74.48
2022-10-01T00:42:00.275Z,74.67
2022-10-01T00:44:37.789Z,74.12
2022-10-01T00:47:18.243Z,74.50
2022-10-01T00:49:47.543Z,74.93
2022-10-01T00:52:23.039Z,74.60
2022-10-01T00:54:56.147Z,74.93
2022-10-01T00:57:27.212Z,74.82
2022-10-01T00:59:57.810Z,75.07
2022-10-01T01:02:28.553Z,74.58
2022-10-01T01:04:56.722Z,75.08
2022-10-01T01:07:25.006Z,75.04
2022-10-01T01:09:57.427Z,75.38
2022-10-01T01:12:56.067Z,75.34
2022-10-01T01:15:27.288Z,75.28
2022-10-01T01:18:22.656Z,75.40
2022-10-01T01:21:15.908Z,75.65
2022-10-01T01:24:08.877Z,75.77
2022-10-01T01:27:09.518Z,75.91
2022-10-01T01:30:10.964Z,75.96
2022-10-01T01:32:54.166Z,76.13
2022-10-01T01:35:32.107Z,76.27
2022-10-01T01:38:21.678Z,76.26
2022-10-01T01:40:53.182Z,76.18
2022-10-01T01:43:31.606Z,76.31
2022-10-01T01:46:04.711Z,76.31
2022-10-01T01:48:36.816Z,76.04
2022-10-01T01:51:17.407Z,76.47
2022-10-01T01:53:45.588Z,76.47
2022-10-01T01:56:14.797Z,76.25
2022-10-01T01:58:52.471Z,76.49
2022-10-01T02:01:45.319Z,76.71
2022-10-01T02:04:37.295Z,76.74
2022-10-01T02:07:35.403Z,77.07
2022-10-01T02:10:24.812Z,77.05
2022-10-01T02:13:07.387Z,77.06
2022-10-01T02:15:55.526Z,77.15
2022-10-01T02:18:54.789Z,76.81
2022-10-01T02:21:38.971Z,77.10
2022-10-01T02:24:23.065Z,76.84
2022-10-01T02:26:54.630Z,77.08
2022-10-01T02:29:25.439Z,76.92
2022-10-01T02:31:57.751Z,76.66
2022-10-01T02:34:29.378Z,76.65
2022-10-01T02:37:01.510Z,76.79
2022-10-01T02:39:34.070Z,76.71
2022-10-01T02:42:04.422Z,77.05
2022-10-01T02:44:39.965Z,76.95
2022-10-01T02:47:21.524Z,77.01
2022-10-01T02:49:52.048Z,77.07
2022-10-01T02:52:42.219Z,77.05
2022-10-01T02:55:13.589Z,76.96
2022-10-01T02:57:42.733Z,76.95
2022-10-01T03:00:22.010Z,77.30
2022-10-01T03:02:50.712Z,76.90
2022-10-01T03:05:38.543Z,77.13
2022-10-01T03:08:07.348Z,77.18
2022-10-01T03:10:36.014Z,77.08
2022-10-01T03:13:07.845Z,77.05
2022-10-01T03:15:35.380Z,77.08
2022-10-01T03:18:02.875Z,77.30
2022-10-01T03:20:31.396Z,76.98
2022-10-01T03:22:58.829Z,76.92
2022-10-01T03:25:26.620Z,77.06
2022-10-01T03:27:55.364Z,77.11
2022-10-01T03:30:26.309Z,76.82
2022-10-01T03:32:53.766Z,76.98
2022-10-01T03:35:21.496Z,76.99
2022-10-01T03:37:49.636Z,77.10
2022-10-01T03:40:17.472Z,76.77
2022-10-01T03:42:46.419Z,76.29
2022-10-01T03:45:15.137Z,75.79
2022-10-01T03:47:45.094Z,75.59
2022-10-01T03:50:14.188Z,75.33
2022-10-01T03:52:43.998Z,75.19
2022-10-01T03:55:11.770Z,74.92
2022-10-01T03:57:39.243Z,74.71
2022-10-01T04:00:10.349Z,74.93
2022-10-01T04:02:40.518Z,73.78
2022-10-01T04:05:09.206Z,72.94
2022-10-01T04:07:36.737Z,71.78
2022-10-01T04:10:04.669Z,71.39
2022-10-01T04:12:32.132Z,71.33
2022-10-01T04:14:59.685Z,70.86
2022-10-01T04:17:30.496Z,70.37
2022-10-01T04:20:00.557Z,69.62
2022-10-01T04:22:29.355Z,68.45
2022-10-01T04:24:59.112Z,67.41
2022-10-01T04:27:27.273Z,66.42
2022-10-01T04:29:57.027Z,65.73
2022-10-01T04:32:24.731Z,64.97
2022-10-01T04:34:54.132Z,64.56
2022-10-01T04:37:24.283Z,64.33
2022-10-01T04:39:51.955Z,63.82
2022-10-01T04:42:22.673Z,62.99
2022-10-01T04:44:51.887Z,61.63
2022-10-01T04:47:19.294Z,60.97
2022-10-01T04:49:49.299Z,60.05
2022-10-01T04:52:19.587Z,59.46
2022-10-01T04:54:47.492Z,59.17
2022-10-01T04:57:14.933Z,58.11
2022-10-01T04:59:42.529Z,57.57
2022-10-01T05:02:10.454Z,57.24
2022-10-01T05:04:38.438Z,56.62
2022-10-01T05:07:07.685Z,56.60
2022-10-01T05:09:35.418Z,56.31
2022-10-01T05:12:03.109Z,55.96
2022-10-01T05:14:31.579Z,55.70
2022-10-01T05:17:00.510Z,54.88
2022-10-01T05:19:32.813Z,55.23
2022-10-01T05:22:00.593Z,54.63
2022-10-01T05:24:30.022Z,54.72
2022-10-01T05:26:58.159Z,54.72
2022-10-01T05:29:26.189Z,54.68
2022-10-01T05:31:54.681Z,54.65
2022-10-01T05:34:22.911Z,55.54
2022-10-01T05:36:55.750Z,55.86
2022-10-01T05:39:23.838Z,55.54
2022-10-01T05:41:56.812Z,56.03
2022-10-01T05:44:25.619Z,56.18
2022-10-01T05:46:54.453Z,55.49
2022-10-01T05:49:27.106Z,55.24
2022-10-01T05:51:54.554Z,55.18
2022-10-01T05:54:23.487Z,54.19
2022-10-01T05:56:51.748Z,53.86
2022-10-01T05:59:21.040Z,54.15
2022-10-01T06:01:48.692Z,53.99
2022-10-01T06:04:17.105Z,53.96
2022-10-01T06:06:48.101Z,54.06
2022-10-01T06:09:16.098Z,53.65
2022-10-01T06:11:45.467Z,52.89
2022-10-01T06:14:14.291Z,52.94
2022-10-01T06:16:42.049Z,51.97
2022-10-01T06:19:09.909Z,50.98
2022-10-01T06:21:38.224Z,50.51
2022-10-01T06:24:06.109Z,50.28
2022-10-01T06:26:33.577Z,50.13
2022-10-01T06:29:02.436Z,49.50
2022-10-01T06:31:30.872Z,48.70
2022-10-01T06:33:58.433Z,48.99
2022-10-01T06:36:25.957Z,49.62
2022-10-01T06:38:53.474Z,49.92
2022-10-01T06:41:21.010Z,50.10
2022-10-01T06:43:50.027Z,50.02
2022-10-01T06:46:17.538Z,50.24
2022-10-01T06:48:45.018Z,50.48
2022-10-01T06:51:12.539Z,50.37
2022-10-01T06:53:39.954Z,49.30
2022-10-01T06:56:08.244Z,46.93
2022-10-01T06:58:35.793Z,48.00
2022-10-01T07:01:04.782Z,46.22
2022-10-01T07:03:32.458Z,45.53
2022-10-01T07:06:05.123Z,44.05
2022-10-01T07:08:34.615Z,43.58
2022-10-01T07:11:04.029Z,42.90
2022-10-01T07:13:31.509Z,43.61
2022-10-01T07:16:04.122Z,43.90
2022-10-01T07:18:31.720Z,44.76
2022-10-01T07:20:59.265Z,45.21
2022-10-01T07:23:28.485Z,44.51
2022-10-01T07:25:55.987Z,43.56
2022-10-01T07:28:27.236Z,42.96
2022-10-01T07:31:07.034Z,41.62
2022-10-01T07:33:34.787Z,40.99
2022-10-01T07:36:07.409Z,40.96
2022-10-01T07:38:35.870Z,41.33
2022-10-01T07:41:03.882Z,41.13
2022-10-01T07:43:33.198Z,41.10
2022-10-01T07:46:02.270Z,40.38
2022-10-01T07:48:30.115Z,40.54
2022-10-01T07:50:58.119Z,39.93
2022-10-01T07:53:27.095Z,39.33
2022-10-01T07:55:55.093Z,38.54
2022-10-01T07:58:24.416Z,38.16
2022-10-01T08:00:56.376Z,37.34
2022-10-01T08:03:24.649Z,37.21
2022-10-01T08:05:53.914Z,37.49
2022-10-01T08:08:23.928Z,37.31
2022-10-01T08:10:51.514Z,36.77
2022-10-01T08:13:19.017Z,36.46
2022-10-01T08:15:50.825Z,36.84
2022-10-01T08:18:18.318Z,37.42
2022-10-01T08:20:47.106Z,37.78
2022-10-01T08:23:16.600Z,37.87
2022-10-01T08:25:45.929Z,37.98
2022-10-01T08:28:13.603Z,37.80
2022-10-01T08:30:42.786Z,37.38
2022-10-01T08:33:14.482Z,36.59
2022-10-01T08:35:43.890Z,36.80
2022-10-01T08:38:12.702Z,37.93
2022-10-01T08:40:47.611Z,37.23
2022-10-01T08:43:37.961Z,37.41
2022-10-01T08:46:13.972Z,37.39
2022-10-01T08:49:01.890Z,37.21
2022-10-01T08:51:43.727Z,35.88
2022-10-01T08:54:41.369Z,36.30
2022-10-01T08:57:37.687Z,36.77
2022-10-01T09:00:12.530Z,36.92
2022-10-01T09:02:42.270Z,37.37
2022-10-01T09:05:38.294Z,37.10
2022-10-01T09:08:43.973Z,37.57
2022-10-01T09:11:27.767Z,38.64
2022-10-01T09:14:11.817Z,39.16
2022-10-01T09:17:06.345Z,39.68
2022-10-01T09:20:01.724Z,39.28
2022-10-01T09:22:51.825Z,38.84
2022-10-01T09:25:25.229Z,38.93
2022-10-01T09:28:00.572Z,38.32
2022-10-01T09:30:30.515Z,37.73
2022-10-01T09:33:12.308Z,37.05
2022-10-01T09:35:49.140Z,36.91
2022-10-01T09:38:31.566Z,35.16
2022-10-01T09:40:59.808Z,35.42
2022-10-01T09:43:40.467Z,35.77
2022-10-01T09:46:13.818Z,35.20
2022-10-01T09:49:08.695Z,34.79
2022-10-01T09:51:45.413Z,35.10
2022-10-01T09:54:26.727Z,35.51
2022-10-01T09:56:58.774Z,35.48
2022-10-01T09:59:35.199Z,35.72
2022-10-01T10:02:08.613Z,35.83
2022-10-01T10:04:38.863Z,36.55
2022-10-01T10:07:06.540Z,36.96
2022-10-01T10:09:36.153Z,36.85
2022-10-01T10:12:03.979Z,36.91
2022-10-01T10:14:38.395Z,37.53
2022-10-01T10:17:12.087Z,37.55
2022-10-01T10:19:41.506Z,37.75
2022-10-01T10:22:25.157Z,37.82
2022-10-01T10:24:54.368Z,37.69
2022-10-01T10:27:27.092Z,37.79
2022-10-01T10:30:09.096Z,38.43
2022-10-01T10:32:37.002Z,38.36
2022-10-01T10:35:10.822Z,38.84
2022-10-01T10:37:45.516Z,39.22
2022-10-01T10:40:27.043Z,39.38
2022-10-01T10:42:58.891Z,39.24
2022-10-01T10:45:44.238Z,39.74
2022-10-01T10:48:17.346Z,39.56
2022-10-01T10:50:46.577Z,39.77
2022-10-01T10:53:26.200Z,40.43
2022-10-01T10:55:56.375Z,40.54
2022-10-01T10:58:30.313Z,40.74
2022-10-01T11:01:13.853Z,40.79
2022-10-01T11:03:53.613Z,41.24
2022-10-01T11:06:21.201Z,41.06
2022-10-01T11:08:57.963Z,40.94
2022-10-01T11:11:44.088Z,40.66
2022-10-01T11:14:31.652Z,41.08
2022-10-01T11:17:18.850Z,41.48
2022-10-01T11:19:55.765Z,42.31
2022-10-01T11:22:52.751Z,42.26
2022-10-01T11:25:27.434Z,41.84
2022-10-01T11:28:05.032Z,42.06
2022-10-01T11:30:54.547Z,42.00
2022-10-01T11:33:58.108Z,42.35
2022-10-01T11:36:55.446Z,42.59
2022-10-01T11:39:27.760Z,42.83
2022-10-01T11:42:20.099Z,42.80
2022-10-01T11:44:57.428Z,43.35
2022-10-01T11:47:37.018Z,43.43
2022-10-01T11:50:19.286Z,43.50
2022-10-01T11:53:07.039Z,43.67
2022-10-01T11:56:00.150Z,43.87
2022-10-01T11:58:53.206Z,44.02
2022-10-01T12:01:40.340Z,44.34
2022-10-01T12:04:14.609Z,44.07
2022-10-01T12:07:06.390Z,44.45
2022-10-01T12:09:53.965Z,44.20
2022-10-01T12:12:28.259Z,44.39
2022-10-01T12:15:17.128Z,44.53
2022-10-01T12:18:06.900Z,44.33
2022-10-01T12:20:43.812Z,44.34
2022-10-01T12:23:22.167Z,44.93
2022-10-01T12:26:01.958Z,44.46
2022-10-01T12:28:53.600Z,44.80
2022-10-01T12:31:35.190Z,44.54
2022-10-01T12:34:23.070Z,44.46
2022-10-01T12:37:22.053Z,44.70
2022-10-01T12:40:08.504Z,44.57
2022-10-01T12:42:49.930Z,44.80
2022-10-01T12:45:45.591Z,45.35
2022-10-01T12:48:39.767Z,45.45
2022-10-01T12:51:44.403Z,45.51
2022-10-01T12:54:50.894Z,45.49
2022-10-01T12:57:37.141Z,45.74
2022-10-01T13:00:20.077Z,45.83
2022-10-01T13:03:17.836Z,45.75
2022-10-01T13:06:06.582Z,46.31
2022-10-01T13:08:43.303Z,46.22
2022-10-01T13:11:36.635Z,46.73
2022-10-01T13:14:07.490Z,46.60
2022-10-01T13:16:44.094Z,46.89
2022-10-01T13:19:18.611Z,47.10
2022-10-01T13:22:17.444Z,47.64
2022-10-01T13:25:21.473Z,47.61
2022-10-01T13:28:12.008Z,47.87
2022-10-01T13:31:01.692Z,47.77
2022-10-01T13:33:32.417Z,47.88
2022-10-01T13:36:02.226Z,47.51
2022-10-01T13:38:41.006Z,47.83
2022-10-01T13:41:25.698Z,48.42
2022-10-01T13:43:59.523Z,48.08
2022-10-01T13:46:31.456Z,48.50
2022-10-01T13:49:21.654Z,48.70
2022-10-01T13:51:49.075Z,48.46
2022-10-01T13:54:37.591Z,48.93
2022-10-01T13:57:22.901Z,48.63
2022-10-01T14:00:00.037Z,49.46
2022-10-01T14:02:39.778Z,49.29
2022-10-01T14:05:26.089Z,49.43
2022-10-01T14:07:59.330Z,49.21
2022-10-01T14:10:56.729Z,49.77
2022-10-01T14:13:45.369Z,49.54
2022-10-01T14:16:14.387Z,49.74
2022-10-01T14:18:45.272Z,50.19
2022-10-01T14:22:00.328Z,50.65
2022-10-01T14:24:42.047Z,50.72
2022-10-01T14:27:39.189Z,51.01
2022-10-01T14:30:13.676Z,51.05
2022-10-01T14:33:18.444Z,51.22
2022-10-01T14:36:06.984Z,51.38
2022-10-01T14:38:34.843Z,51.46
2022-10-01T14:41:02.379Z,51.73
2022-10-01T14:43:31.765Z,51.92
2022-10-01T14:46:19.014Z,52.53
2022-10-01T14:48:58.124Z,52.45
2022-10-01T14:51:28.555Z,52.56
2022-10-01T14:53:59.247Z,52.55
2022-10-01T14:56:28.495Z,52.95
2022-10-01T14:59:03.031Z,53.26
2022-10-01T15:01:31.797Z,53.37
2022-10-01T15:03:59.298Z,53.45
2022-10-01T15:06:30.242Z,53.68
2022-10-01T15:09:12.845Z,54.04
2022-10-01T15:11:44.482Z,54.28
2022-10-01T15:14:19.424Z,54.33
2022-10-01T15:16:47.464Z,54.19
2022-10-01T15:19:20.890Z,54.46
2022-10-01T15:21:54.789Z,54.46
2022-10-01T15:24:37.099Z,54.64
2022-10-01T15:27:07.106Z,54.52
2022-10-01T15:29:35.758Z,54.82
2022-10-01T15:32:04.383Z,54.91
2022-10-01T15:34:32.817Z,54.90
2022-10-01T15:37:01.253Z,55.32
2022-10-01T15:39:37.799Z,55.49
2022-10-01T15:42:20.854Z,55.55
2022-10-01T15:44:50.257Z,55.66
2022-10-01T15:47:21.172Z,55.85
2022-10-01T15:50:18.740Z,56.02
2022-10-01T15:52:52.287Z,56.03
2022-10-01T15:55:24.096Z,56.00
2022-10-01T15:57:57.646Z,56.37
2022-10-01T16:00:31.635Z,56.61
2022-10-01T16:02:59.471Z,56.46
2022-10-01T16:05:31.790Z,56.82
2022-10-01T16:07:59.293Z,56.82
2022-10-01T16:10:34.897Z,56.77
2022-10-01T16:13:32.105Z,57.19
2022-10-01T16:16:15.368Z,57.14
2022-10-01T16:18:43.889Z,57.14
2022-10-01T16:21:12.151Z,57.13
2022-10-01T16:23:50.147Z,57.37
2022-10-01T16:26:34.698Z,57.69
2022-10-01T16:29:25.697Z,57.43
2022-10-01T16:31:53.640Z,57.23
2022-10-01T16:34:21.373Z,57.73
2022-10-01T16:36:49.130Z,57.51
2022-10-01T16:39:16.875Z,57.62
2022-10-01T16:42:06.161Z,58.01
2022-10-01T16:44:40.312Z,58.24
2022-10-01T16:47:10.481Z,58.19
2022-10-01T16:49:39.113Z,58.21
2022-10-01T16:52:06.744Z,58.39
2022-10-01T16:54:34.578Z,58.42
2022-10-01T16:57:04.887Z,58.50
2022-10-01T16:59:34.006Z,58.82
2022-10-01T17:02:02.606Z,58.81
2022-10-01T17:04:34.038Z,58.78
2022-10-01T17:07:02.004Z,59.09
2022-10-01T17:09:29.590Z,59.01
2022-10-01T17:11:58.248Z,59.17
2022-10-01T17:14:25.739Z,59.28
2022-10-01T17:16:53.779Z,59.36
2022-10-01T17:19:22.247Z,59.55
2022-10-01T17:21:49.676Z,59.83
2022-10-01T17:24:19.460Z,59.96
2022-10-01T17:26:47.366Z,59.65
2022-10-01T17:29:17.427Z,59.98
2022-10-01T17:31:46.800Z,59.98
2022-10-01T17:34:15.109Z,60.04
2022-10-01T17:36:42.571Z,60.06
2022-10-01T17:39:10.061Z,60.28
2022-10-01T17:41:37.685Z,60.69
2022-10-01T17:44:05.085Z,60.66
2022-10-01T17:46:35.602Z,60.77
2022-10-01T17:49:03.292Z,60.65
2022-10-01T17:51:30.843Z,60.63
2022-10-01T17:54:00.014Z,61.01
2022-10-01T17:56:27.548Z,61.14
2022-10-01T17:58:55.171Z,61.02
2022-10-01T18:01:23.019Z,61.12
2022-10-01T18:04:00.465Z,61.46
2022-10-01T18:06:27.946Z,61.40
2022-10-01T18:08:56.472Z,61.41
2022-10-01T18:11:27.474Z,61.96
2022-10-01T18:13:55.030Z,62.14
2022-10-01T18:16:23.030Z,62.33
2022-10-01T18:21:49.232Z,62.51
2022-10-01T18:24:17.151Z,62.54
2022-10-01T18:26:45.996Z,63.16
2022-10-01T18:29:25.144Z,63.28
2022-10-01T18:32:05.308Z,63.69
2022-10-01T18:34:40.594Z,63.44
2022-10-01T18:37:18.275Z,63.76
2022-10-01T18:39:53.291Z,63.71
2022-10-01T18:42:32.895Z,64.04
2022-10-01T18:45:02.709Z,64.04
2022-10-01T18:47:55.124Z,64.23
2022-10-01T18:50:52.758Z,64.56
2022-10-01T18:53:45.335Z,64.76
2022-10-01T18:56:21.543Z,64.55
2022-10-01T18:59:04.199Z,65.08
2022-10-01T19:01:43.468Z,65.30
2022-10-01T19:04:39.031Z,65.22
2022-10-01T19:07:33.638Z,65.52
2022-10-01T19:10:08.419Z,65.55
2022-10-01T19:13:02.094Z,65.51
2022-10-01T19:15:45.279Z,66.06
2022-10-01T19:18:31.124Z,65.68
2022-10-01T19:21:45.520Z,66.41
2022-10-01T19:24:38.539Z,65.89
2022-10-01T19:27:23.955Z,65.76
2022-10-01T19:30:02.972Z,66.00
2022-10-01T19:32:39.919Z,66.04
2022-10-01T19:35:17.431Z,66.28
2022-10-01T19:38:05.902Z,66.55
2022-10-01T19:40:39.167Z,66.19
2022-10-01T19:43:21.510Z,65.83
2022-10-01T19:46:15.412Z,66.25
2022-10-01T19:49:15.385Z,66.64
2022-10-01T19:51:52.308Z,66.66
2022-10-01T19:54:22.725Z,66.35
2022-10-01T19:56:54.689Z,66.23
2022-10-01T19:59:22.907Z,66.63
2022-10-01T20:01:59.184Z,66.52
2022-10-01T20:04:29.363Z,66.71
2022-10-01T20:07:11.839Z,66.63
2022-10-01T20:09:45.782Z,66.60
2022-10-01T20:12:36.436Z,66.91
2022-10-01T20:15:37.846Z,66.47
2022-10-01T20:18:14.868Z,66.81
2022-10-01T20:21:23.538Z,66.69
2022-10-01T20:24:08.288Z,66.32
2022-10-01T20:26:46.889Z,66.52
2022-10-01T20:29:25.848Z,66.74
2022-10-01T20:32:07.038Z,66.51
2022-10-01T20:34:52.873Z,66.92
2022-10-01T20:37:49.085Z,66.66
2022-10-01T20:40:40.873Z,67.04
2022-10-01T20:43:30.954Z,66.98
2022-10-01T20:46:03.474Z,67.07
2022-10-01T20:48:37.172Z,67.38
2022-10-01T20:51:16.216Z,67.66
2022-10-01T20:53:53.734Z,67.59
2022-10-01T20:56:34.013Z,68.31
2022-10-01T20:59:11.812Z,68.15
2022-10-01T21:01:46.571Z,68.50
2022-10-01T21:04:23.400Z,68.93
2022-10-01T21:07:01.454Z,69.07
2022-10-01T21:09:38.666Z,69.19
2022-10-01T21:12:16.240Z,69.29
2022-10-01T21:14:53.908Z,69.67
2022-10-01T21:17:40.490Z,69.80
2022-10-01T21:20:21.262Z,69.98
2022-10-01T21:23:35.384Z,70.45
2022-10-01T21:26:11.192Z,70.19
2022-10-01T21:28:56.798Z,70.12
2022-10-01T21:31:42.945Z,70.37
2022-10-01T21:34:22.701Z,70.62
2022-10-01T21:37:03.734Z,71.29
2022-10-01T21:39:41.093Z,71.39
2022-10-01T21:42:17.286Z,71.79
2022-10-01T21:45:06.458Z,72.19
2022-10-01T21:47:54.170Z,71.67
2022-10-01T21:50:46.815Z,71.67
2022-10-01T21:53:38.366Z,72.01
2022-10-01T21:56:14.353Z,72.14
2022-10-01T21:59:11.109Z,72.46
2022-10-01T22:02:15.088Z,72.43
2022-10-01T22:04:53.034Z,72.48
2022-10-01T22:07:42.454Z,72.62
2022-10-01T22:10:19.404Z,72.76
2022-10-01T22:12:52.187Z,72.47
2022-10-01T22:15:33.405Z,72.57
2022-10-01T22:18:05.088Z,72.34
2022-10-01T22:20:35.260Z,72.40
2022-10-01T22:23:09.429Z,72.32
2022-10-01T22:25:43.328Z,72.06
2022-10-01T22:28:19.004Z,72.20
2022-10-01T22:30:50.272Z,71.89
2022-10-01T22:33:33.137Z,71.99
2022-10-01T22:36:07.259Z,71.75
2022-10-01T22:38:44.731Z,71.94
2022-10-01T22:41:41.214Z,72.16
2022-10-01T22:44:20.532Z,71.98
2022-10-01T22:47:02.008Z,72.07
2022-10-01T22:49:55.077Z,72.04
2022-10-01T22:52:47.078Z,71.98
2022-10-01T22:55:37.201Z,71.87
2022-10-01T22:58:22.391Z,72.16
2022-10-01T23:01:12.402Z,72.93
2022-10-01T23:04:00.035Z,73.32
2022-10-01T23:06:45.651Z,72.86
2022-10-01T23:09:16.302Z,73.07
2022-10-01T23:11:58.759Z,73.46
2022-10-01T23:14:53.759Z,73.66
2022-10-01T23:17:35.316Z,73.50
2022-10-01T23:20:21.167Z,73.88
2022-10-01T23:22:54.904Z,73.84
2022-10-01T23:25:44.321Z,74.19
2022-10-01T23:28:42.217Z,73.85
2022-10-01T23:31:34.823Z,73.92
2022-10-01T23:34:40.558Z,73.97
2022-10-01T23:37:45.487Z,74.31
2022-10-01T23:40:20.955Z,74.12
2022-10-01T23:43:19.754Z,74.16
2022-10-01T23:45:55.338Z,74.03
2022-10-01T23:48:32.041Z,74.17
2022-10-01T23:51:14.843Z,74.26
2022-10-01T23:54:08.722Z,73.94
2022-10-01T23:56:51.504Z,74.26
2022-10-01T23:59:28.051Z,74.25
